Los Angeles, Argentina
Current Conditions -  °F | °C
As of 10:00 PM on Wednesday 26 Nov 2014 (Local Time) from SANT Reporting Station
Overcast Overcast  
Wind Chill: 70°   Ceiling: 2000
Heat Index: 70°   Visibility: 4mi
Dew Point: 68°   Wind: 5mph
Humidity: 94%   Direction: 270°W
Pressure: 30"   Gusts: NA
Location:  28.54°S, 65.95°W
Report Text: SANT 270100Z 27004KT 6000 BKN020 OVC03521/20 Q1016
Loading
Personal Weather Stations






























Interactive Weather Map New forecast layout! Learn more

10-Day Weather Forecast

Advertisements
Track Severe Weather on mobile